sensor_id;sensor_type;location;lat;lon;timestamp;P1;durP1;ratioP1;P2;durP2;ratioP2
37529;SDS011;23374;52.758;6.872;2023-05-21T00:00:08;4.53;;;2.40;;
37529;SDS011;23374;52.758;6.872;2023-05-21T00:02:30;3.37;;;2.47;;
37529;SDS011;23374;52.758;6.872;2023-05-21T00:04:52;3.00;;;2.30;;
37529;SDS011;23374;52.758;6.872;2023-05-21T00:07:13;3.33;;;2.43;;
37529;SDS011;23374;52.758;6.872;2023-05-21T00:09:35;3.70;;;2.53;;
37529;SDS011;23374;52.758;6.872;2023-05-21T00:11:59;3.63;;;2.40;;
37529;SDS011;23374;52.758;6.872;2023-05-21T00:14:20;3.77;;;2.77;;
37529;SDS011;23374;52.758;6.872;2023-05-21T00:16:40;4.20;;;2.40;;
37529;SDS011;23374;52.758;6.872;2023-05-21T00:19:00;3.67;;;2.53;;
37529;SDS011;23374;52.758;6.872;2023-05-21T00:22:40;4.60;;;2.53;;
37529;SDS011;23374;52.758;6.872;2023-05-21T00:25:01;2.83;;;2.33;;
37529;SDS011;23374;52.758;6.872;2023-05-21T00:27:21;3.50;;;2.30;;
37529;SDS011;23374;52.758;6.872;2023-05-21T00:29:42;7.80;;;2.83;;
37529;SDS011;23374;52.758;6.872;2023-05-21T00:32:03;2.77;;;2.30;;
37529;SDS011;23374;52.758;6.872;2023-05-21T00:34:25;3.03;;;2.60;;
37529;SDS011;23374;52.758;6.872;2023-05-21T00:36:45;3.73;;;2.50;;
37529;SDS011;23374;52.758;6.872;2023-05-21T00:39:05;3.20;;;2.27;;
37529;SDS011;23374;52.758;6.872;2023-05-21T00:41:27;6.43;;;2.27;;
37529;SDS011;23374;52.758;6.872;2023-05-21T00:43:48;3.07;;;2.40;;
37529;SDS011;23374;52.758;6.872;2023-05-21T00:46:13;4.43;;;2.57;;
37529;SDS011;23374;52.758;6.872;2023-05-21T00:48:37;4.40;;;2.47;;
37529;SDS011;23374;52.758;6.872;2023-05-21T00:50:58;4.23;;;2.90;;
37529;SDS011;23374;52.758;6.872;2023-05-21T00:53:19;3.93;;;2.63;;
37529;SDS011;23374;52.758;6.872;2023-05-21T00:55:39;7.10;;;3.03;;
37529;SDS011;23374;52.758;6.872;2023-05-21T00:58:00;3.50;;;2.53;;
37529;SDS011;23374;52.758;6.872;2023-05-21T01:00:20;5.90;;;3.13;;
37529;SDS011;23374;52.758;6.872;2023-05-21T01:02:43;4.03;;;2.50;;
37529;SDS011;23374;52.758;6.872;2023-05-21T01:05:01;4.37;;;2.87;;
37529;SDS011;23374;52.758;6.872;2023-05-21T01:07:25;3.77;;;2.50;;
37529;SDS011;23374;52.758;6.872;2023-05-21T01:09:45;4.77;;;2.47;;
37529;SDS011;23374;52.758;6.872;2023-05-21T01:12:07;3.63;;;2.73;;
37529;SDS011;23374;52.758;6.872;2023-05-21T01:14:28;5.20;;;2.90;;
37529;SDS011;23374;52.758;6.872;2023-05-21T01:16:50;3.57;;;2.50;;
37529;SDS011;23374;52.758;6.872;2023-05-21T01:19:14;4.23;;;2.60;;
37529;SDS011;23374;52.758;6.872;2023-05-21T01:22:56;3.10;;;2.40;;
37529;SDS011;23374;52.758;6.872;2023-05-21T01:25:17;11.70;;;3.10;;
37529;SDS011;23374;52.758;6.872;2023-05-21T01:27:38;4.87;;;2.87;;
37529;SDS011;23374;52.758;6.872;2023-05-21T01:29:59;7.13;;;2.90;;
37529;SDS011;23374;52.758;6.872;2023-05-21T01:33:53;7.23;;;3.10;;
37529;SDS011;23374;52.758;6.872;2023-05-21T01:36:24;4.30;;;2.97;;
37529;SDS011;23374;52.758;6.872;2023-05-21T01:39:00;4.47;;;2.80;;
37529;SDS011;23374;52.758;6.872;2023-05-21T01:41:33;4.00;;;2.90;;
37529;SDS011;23374;52.758;6.872;2023-05-21T01:44:00;4.73;;;2.73;;
37529;SDS011;23374;52.758;6.872;2023-05-21T01:46:25;5.37;;;2.60;;
37529;SDS011;23374;52.758;6.872;2023-05-21T01:48:49;5.63;;;3.23;;
37529;SDS011;23374;52.758;6.872;2023-05-21T01:51:11;4.70;;;3.00;;
37529;SDS011;23374;52.758;6.872;2023-05-21T01:53:32;4.10;;;2.77;;
37529;SDS011;23374;52.758;6.872;2023-05-21T01:55:53;4.63;;;2.83;;
37529;SDS011;23374;52.758;6.872;2023-05-21T01:58:14;4.20;;;2.50;;
37529;SDS011;23374;52.758;6.872;2023-05-21T02:00:35;4.07;;;2.50;;
37529;SDS011;23374;52.758;6.872;2023-05-21T02:02:56;5.60;;;2.83;;
37529;SDS011;23374;52.758;6.872;2023-05-21T02:05:20;6.27;;;2.70;;
37529;SDS011;23374;52.758;6.872;2023-05-21T02:07:40;5.50;;;2.83;;
37529;SDS011;23374;52.758;6.872;2023-05-21T02:10:03;3.90;;;2.80;;
37529;SDS011;23374;52.758;6.872;2023-05-21T02:12:23;4.03;;;2.93;;
37529;SDS011;23374;52.758;6.872;2023-05-21T02:14:44;5.63;;;2.90;;
37529;SDS011;23374;52.758;6.872;2023-05-21T02:17:09;5.70;;;3.23;;
37529;SDS011;23374;52.758;6.872;2023-05-21T02:19:29;4.33;;;3.00;;
37529;SDS011;23374;52.758;6.872;2023-05-21T02:22:51;5.83;;;2.77;;
37529;SDS011;23374;52.758;6.872;2023-05-21T02:25:13;5.57;;;2.90;;
37529;SDS011;23374;52.758;6.872;2023-05-21T02:27:35;5.03;;;3.40;;
37529;SDS011;23374;52.758;6.872;2023-05-21T02:29:56;6.03;;;2.63;;
37529;SDS011;23374;52.758;6.872;2023-05-21T02:32:16;5.37;;;2.67;;
37529;SDS011;23374;52.758;6.872;2023-05-21T02:34:37;6.23;;;3.27;;
37529;SDS011;23374;52.758;6.872;2023-05-21T02:37:01;6.00;;;2.97;;
37529;SDS011;23374;52.758;6.872;2023-05-21T02:39:22;4.30;;;3.00;;
37529;SDS011;23374;52.758;6.872;2023-05-21T02:41:42;6.70;;;2.93;;
37529;SDS011;23374;52.758;6.872;2023-05-21T02:44:03;3.30;;;2.80;;
37529;SDS011;23374;52.758;6.872;2023-05-21T02:46:23;5.83;;;3.53;;
37529;SDS011;23374;52.758;6.872;2023-05-21T02:48:44;5.67;;;3.10;;
37529;SDS011;23374;52.758;6.872;2023-05-21T02:51:04;5.17;;;3.20;;
37529;SDS011;23374;52.758;6.872;2023-05-21T02:53:25;7.33;;;3.47;;
37529;SDS011;23374;52.758;6.872;2023-05-21T02:55:45;6.60;;;3.63;;
37529;SDS011;23374;52.758;6.872;2023-05-21T02:58:07;5.10;;;3.20;;
37529;SDS011;23374;52.758;6.872;2023-05-21T03:00:28;6.77;;;3.60;;
37529;SDS011;23374;52.758;6.872;2023-05-21T03:02:49;4.27;;;3.23;;
37529;SDS011;23374;52.758;6.872;2023-05-21T03:05:10;5.67;;;3.30;;
37529;SDS011;23374;52.758;6.872;2023-05-21T03:07:30;6.13;;;3.27;;
37529;SDS011;23374;52.758;6.872;2023-05-21T03:09:51;4.77;;;3.53;;
37529;SDS011;23374;52.758;6.872;2023-05-21T03:12:11;6.23;;;3.63;;
37529;SDS011;23374;52.758;6.872;2023-05-21T03:14:32;8.13;;;3.37;;
37529;SDS011;23374;52.758;6.872;2023-05-21T03:16:54;7.00;;;3.33;;
37529;SDS011;23374;52.758;6.872;2023-05-21T03:19:14;6.57;;;3.70;;
37529;SDS011;23374;52.758;6.872;2023-05-21T03:21:34;9.53;;;3.40;;
37529;SDS011;23374;52.758;6.872;2023-05-21T03:23:55;5.93;;;3.57;;
37529;SDS011;23374;52.758;6.872;2023-05-21T03:26:19;8.10;;;3.43;;
37529;SDS011;23374;52.758;6.872;2023-05-21T03:28:41;6.23;;;3.50;;
37529;SDS011;23374;52.758;6.872;2023-05-21T03:31:01;7.57;;;3.67;;
37529;SDS011;23374;52.758;6.872;2023-05-21T03:33:22;5.93;;;3.63;;
37529;SDS011;23374;52.758;6.872;2023-05-21T03:35:42;5.17;;;3.60;;
37529;SDS011;23374;52.758;6.872;2023-05-21T03:38:02;6.30;;;3.53;;
37529;SDS011;23374;52.758;6.872;2023-05-21T03:40:22;5.20;;;3.40;;
37529;SDS011;23374;52.758;6.872;2023-05-21T03:42:42;6.40;;;3.50;;
37529;SDS011;23374;52.758;6.872;2023-05-21T03:45:03;5.77;;;3.03;;
37529;SDS011;23374;52.758;6.872;2023-05-21T03:47:25;6.10;;;3.43;;
37529;SDS011;23374;52.758;6.872;2023-05-21T03:49:46;7.33;;;3.60;;
37529;SDS011;23374;52.758;6.872;2023-05-21T03:52:06;8.30;;;4.00;;
37529;SDS011;23374;52.758;6.872;2023-05-21T03:54:27;7.93;;;3.87;;
37529;SDS011;23374;52.758;6.872;2023-05-21T03:56:47;9.00;;;3.70;;
37529;SDS011;23374;52.758;6.872;2023-05-21T03:59:07;6.23;;;3.93;;
37529;SDS011;23374;52.758;6.872;2023-05-21T04:01:27;5.93;;;3.60;;
37529;SDS011;23374;52.758;6.872;2023-05-21T04:03:48;5.80;;;3.73;;
37529;SDS011;23374;52.758;6.872;2023-05-21T04:06:08;13.10;;;4.57;;
37529;SDS011;23374;52.758;6.872;2023-05-21T04:08:28;6.40;;;3.53;;
37529;SDS011;23374;52.758;6.872;2023-05-21T04:10:49;7.30;;;3.67;;
37529;SDS011;23374;52.758;6.872;2023-05-21T04:13:09;5.87;;;3.90;;
37529;SDS011;23374;52.758;6.872;2023-05-21T04:15:30;5.67;;;4.00;;
37529;SDS011;23374;52.758;6.872;2023-05-21T04:17:51;6.93;;;3.80;;
37529;SDS011;23374;52.758;6.872;2023-05-21T04:20:12;8.47;;;4.13;;
37529;SDS011;23374;52.758;6.872;2023-05-21T04:22:35;7.30;;;4.23;;
37529;SDS011;23374;52.758;6.872;2023-05-21T04:24:56;7.60;;;3.97;;
37529;SDS011;23374;52.758;6.872;2023-05-21T04:27:19;6.00;;;3.63;;
37529;SDS011;23374;52.758;6.872;2023-05-21T04:29:42;5.13;;;3.57;;
37529;SDS011;23374;52.758;6.872;2023-05-21T04:32:03;5.37;;;3.87;;
37529;SDS011;23374;52.758;6.872;2023-05-21T04:34:24;8.83;;;4.27;;
37529;SDS011;23374;52.758;6.872;2023-05-21T04:36:44;5.20;;;3.67;;
37529;SDS011;23374;52.758;6.872;2023-05-21T04:39:05;8.13;;;3.80;;
37529;SDS011;23374;52.758;6.872;2023-05-21T04:41:26;5.93;;;3.80;;
37529;SDS011;23374;52.758;6.872;2023-05-21T04:43:47;4.93;;;3.10;;
37529;SDS011;23374;52.758;6.872;2023-05-21T04:46:07;7.30;;;3.60;;
37529;SDS011;23374;52.758;6.872;2023-05-21T04:48:27;7.40;;;3.40;;
37529;SDS011;23374;52.758;6.872;2023-05-21T04:50:48;6.27;;;3.50;;
37529;SDS011;23374;52.758;6.872;2023-05-21T04:53:09;8.87;;;3.30;;
37529;SDS011;23374;52.758;6.872;2023-05-21T04:55:30;5.80;;;3.23;;
37529;SDS011;23374;52.758;6.872;2023-05-21T04:57:50;5.47;;;3.53;;
37529;SDS011;23374;52.758;6.872;2023-05-21T05:00:12;5.73;;;3.40;;
37529;SDS011;23374;52.758;6.872;2023-05-21T05:02:33;6.33;;;3.10;;
37529;SDS011;23374;52.758;6.872;2023-05-21T05:04:53;4.90;;;3.50;;
37529;SDS011;23374;52.758;6.872;2023-05-21T05:07:13;6.20;;;3.13;;
37529;SDS011;23374;52.758;6.872;2023-05-21T05:09:34;5.97;;;3.50;;
37529;SDS011;23374;52.758;6.872;2023-05-21T05:11:54;5.73;;;3.10;;
37529;SDS011;23374;52.758;6.872;2023-05-21T05:14:14;6.10;;;3.47;;
37529;SDS011;23374;52.758;6.872;2023-05-21T05:16:35;5.97;;;3.23;;
37529;SDS011;23374;52.758;6.872;2023-05-21T05:18:55;7.03;;;3.37;;
37529;SDS011;23374;52.758;6.872;2023-05-21T05:21:16;7.30;;;3.00;;
37529;SDS011;23374;52.758;6.872;2023-05-21T05:23:36;5.70;;;2.73;;
37529;SDS011;23374;52.758;6.872;2023-05-21T05:25:57;5.23;;;3.00;;
37529;SDS011;23374;52.758;6.872;2023-05-21T05:28:17;7.83;;;3.30;;
37529;SDS011;23374;52.758;6.872;2023-05-21T05:30:38;5.97;;;3.20;;
37529;SDS011;23374;52.758;6.872;2023-05-21T05:32:59;6.17;;;3.10;;
37529;SDS011;23374;52.758;6.872;2023-05-21T05:35:19;8.30;;;2.87;;
37529;SDS011;23374;52.758;6.872;2023-05-21T05:37:39;7.60;;;3.33;;
37529;SDS011;23374;52.758;6.872;2023-05-21T05:40:00;5.30;;;2.70;;
37529;SDS011;23374;52.758;6.872;2023-05-21T05:42:21;7.17;;;2.80;;
37529;SDS011;23374;52.758;6.872;2023-05-21T05:44:41;6.97;;;3.73;;
37529;SDS011;23374;52.758;6.872;2023-05-21T05:47:02;4.60;;;3.03;;
37529;SDS011;23374;52.758;6.872;2023-05-21T05:49:27;5.37;;;3.10;;
37529;SDS011;23374;52.758;6.872;2023-05-21T05:51:48;10.23;;;3.20;;
37529;SDS011;23374;52.758;6.872;2023-05-21T05:54:09;6.50;;;2.83;;
37529;SDS011;23374;52.758;6.872;2023-05-21T05:56:29;3.73;;;2.30;;
37529;SDS011;23374;52.758;6.872;2023-05-21T05:58:50;6.50;;;2.40;;
37529;SDS011;23374;52.758;6.872;2023-05-21T06:01:10;6.53;;;3.23;;
37529;SDS011;23374;52.758;6.872;2023-05-21T06:03:32;5.83;;;2.97;;
37529;SDS011;23374;52.758;6.872;2023-05-21T06:05:52;5.83;;;2.90;;
37529;SDS011;23374;52.758;6.872;2023-05-21T06:08:13;7.67;;;3.03;;
37529;SDS011;23374;52.758;6.872;2023-05-21T06:10:34;5.07;;;2.70;;
37529;SDS011;23374;52.758;6.872;2023-05-21T06:12:55;5.47;;;3.00;;
37529;SDS011;23374;52.758;6.872;2023-05-21T06:15:15;4.93;;;2.70;;
37529;SDS011;23374;52.758;6.872;2023-05-21T06:17:38;5.03;;;2.60;;
37529;SDS011;23374;52.758;6.872;2023-05-21T06:19:59;7.73;;;3.10;;
37529;SDS011;23374;52.758;6.872;2023-05-21T06:22:20;7.87;;;3.03;;
37529;SDS011;23374;52.758;6.872;2023-05-21T06:24:41;5.43;;;3.00;;
37529;SDS011;23374;52.758;6.872;2023-05-21T06:27:01;5.33;;;2.53;;
37529;SDS011;23374;52.758;6.872;2023-05-21T06:29:22;6.10;;;2.80;;
37529;SDS011;23374;52.758;6.872;2023-05-21T06:31:43;5.10;;;2.87;;
37529;SDS011;23374;52.758;6.872;2023-05-21T06:34:03;4.60;;;2.40;;
37529;SDS011;23374;52.758;6.872;2023-05-21T06:36:29;4.97;;;2.40;;
37529;SDS011;23374;52.758;6.872;2023-05-21T06:38:50;4.07;;;2.67;;
37529;SDS011;23374;52.758;6.872;2023-05-21T06:41:11;6.10;;;2.60;;
37529;SDS011;23374;52.758;6.872;2023-05-21T06:43:31;5.87;;;2.97;;
37529;SDS011;23374;52.758;6.872;2023-05-21T06:45:51;5.23;;;2.67;;
37529;SDS011;23374;52.758;6.872;2023-05-21T06:48:12;6.40;;;2.43;;
37529;SDS011;23374;52.758;6.872;2023-05-21T06:50:34;4.27;;;2.67;;
37529;SDS011;23374;52.758;6.872;2023-05-21T06:52:54;5.37;;;2.80;;
37529;SDS011;23374;52.758;6.872;2023-05-21T06:55:15;3.77;;;2.70;;
37529;SDS011;23374;52.758;6.872;2023-05-21T06:57:36;6.93;;;2.70;;
37529;SDS011;23374;52.758;6.872;2023-05-21T06:59:57;4.03;;;2.67;;
37529;SDS011;23374;52.758;6.872;2023-05-21T07:02:18;3.90;;;2.50;;
37529;SDS011;23374;52.758;6.872;2023-05-21T07:04:38;5.77;;;2.60;;
37529;SDS011;23374;52.758;6.872;2023-05-21T07:06:58;4.90;;;2.60;;
37529;SDS011;23374;52.758;6.872;2023-05-21T07:09:19;4.73;;;3.27;;
37529;SDS011;23374;52.758;6.872;2023-05-21T07:11:39;5.43;;;2.73;;
37529;SDS011;23374;52.758;6.872;2023-05-21T07:14:00;6.33;;;2.60;;
37529;SDS011;23374;52.758;6.872;2023-05-21T07:16:20;4.10;;;2.70;;
37529;SDS011;23374;52.758;6.872;2023-05-21T07:18:41;4.50;;;2.70;;
37529;SDS011;23374;52.758;6.872;2023-05-21T07:21:01;4.90;;;2.80;;
37529;SDS011;23374;52.758;6.872;2023-05-21T07:23:22;4.03;;;2.77;;
37529;SDS011;23374;52.758;6.872;2023-05-21T07:25:42;6.17;;;2.53;;
37529;SDS011;23374;52.758;6.872;2023-05-21T07:28:02;5.37;;;2.57;;
37529;SDS011;23374;52.758;6.872;2023-05-21T07:30:23;4.20;;;2.50;;
37529;SDS011;23374;52.758;6.872;2023-05-21T07:32:43;7.10;;;2.83;;
37529;SDS011;23374;52.758;6.872;2023-05-21T07:35:04;7.07;;;2.77;;
37529;SDS011;23374;52.758;6.872;2023-05-21T07:37:26;6.30;;;3.20;;
37529;SDS011;23374;52.758;6.872;2023-05-21T07:39:47;5.10;;;3.10;;
37529;SDS011;23374;52.758;6.872;2023-05-21T07:42:07;6.77;;;2.80;;
37529;SDS011;23374;52.758;6.872;2023-05-21T07:44:28;6.27;;;3.03;;
37529;SDS011;23374;52.758;6.872;2023-05-21T07:46:49;7.37;;;2.53;;
37529;SDS011;23374;52.758;6.872;2023-05-21T07:49:09;5.93;;;2.33;;
37529;SDS011;23374;52.758;6.872;2023-05-21T07:51:35;6.50;;;2.90;;
37529;SDS011;23374;52.758;6.872;2023-05-21T07:53:58;5.17;;;2.70;;
37529;SDS011;23374;52.758;6.872;2023-05-21T07:56:19;4.57;;;2.80;;
37529;SDS011;23374;52.758;6.872;2023-05-21T07:58:40;4.97;;;3.10;;
37529;SDS011;23374;52.758;6.872;2023-05-21T08:01:02;6.07;;;3.00;;
37529;SDS011;23374;52.758;6.872;2023-05-21T08:03:24;5.03;;;2.80;;
37529;SDS011;23374;52.758;6.872;2023-05-21T08:05:46;5.10;;;3.20;;
37529;SDS011;23374;52.758;6.872;2023-05-21T08:08:07;4.90;;;2.87;;
37529;SDS011;23374;52.758;6.872;2023-05-21T08:10:28;6.90;;;3.10;;
37529;SDS011;23374;52.758;6.872;2023-05-21T08:12:48;4.47;;;3.20;;
37529;SDS011;23374;52.758;6.872;2023-05-21T08:15:10;6.03;;;3.73;;
37529;SDS011;23374;52.758;6.872;2023-05-21T08:17:30;6.73;;;3.23;;
37529;SDS011;23374;52.758;6.872;2023-05-21T08:19:50;6.57;;;3.13;;
37529;SDS011;23374;52.758;6.872;2023-05-21T08:22:11;8.63;;;3.27;;
37529;SDS011;23374;52.758;6.872;2023-05-21T08:24:32;7.10;;;3.57;;
37529;SDS011;23374;52.758;6.872;2023-05-21T08:26:52;7.97;;;3.33;;
37529;SDS011;23374;52.758;6.872;2023-05-21T08:29:13;5.93;;;3.17;;
37529;SDS011;23374;52.758;6.872;2023-05-21T08:31:33;9.43;;;3.37;;
37529;SDS011;23374;52.758;6.872;2023-05-21T08:33:54;6.80;;;3.43;;
37529;SDS011;23374;52.758;6.872;2023-05-21T08:36:15;5.50;;;3.37;;
37529;SDS011;23374;52.758;6.872;2023-05-21T08:38:36;6.13;;;2.97;;
37529;SDS011;23374;52.758;6.872;2023-05-21T08:40:57;5.83;;;3.00;;
37529;SDS011;23374;52.758;6.872;2023-05-21T08:43:18;7.27;;;3.17;;
37529;SDS011;23374;52.758;6.872;2023-05-21T08:45:40;5.53;;;3.30;;
37529;SDS011;23374;52.758;6.872;2023-05-21T08:48:04;7.37;;;3.60;;
37529;SDS011;23374;52.758;6.872;2023-05-21T08:50:28;7.57;;;3.40;;
37529;SDS011;23374;52.758;6.872;2023-05-21T08:52:52;7.17;;;3.37;;
37529;SDS011;23374;52.758;6.872;2023-05-21T08:55:14;6.10;;;3.70;;
37529;SDS011;23374;52.758;6.872;2023-05-21T08:57:35;5.40;;;3.00;;
37529;SDS011;23374;52.758;6.872;2023-05-21T09:00:00;5.60;;;3.73;;
37529;SDS011;23374;52.758;6.872;2023-05-21T09:02:20;5.77;;;3.40;;
37529;SDS011;23374;52.758;6.872;2023-05-21T09:04:44;5.60;;;3.60;;
37529;SDS011;23374;52.758;6.872;2023-05-21T09:07:08;7.47;;;3.90;;
37529;SDS011;23374;52.758;6.872;2023-05-21T09:09:33;6.70;;;3.73;;
37529;SDS011;23374;52.758;6.872;2023-05-21T09:12:00;8.53;;;3.93;;
37529;SDS011;23374;52.758;6.872;2023-05-21T09:14:21;5.57;;;3.73;;
37529;SDS011;23374;52.758;6.872;2023-05-21T09:16:45;5.37;;;3.87;;
37529;SDS011;23374;52.758;6.872;2023-05-21T09:19:07;6.07;;;3.60;;
37529;SDS011;23374;52.758;6.872;2023-05-21T09:21:29;6.37;;;3.80;;
37529;SDS011;23374;52.758;6.872;2023-05-21T09:23:57;6.37;;;4.03;;
37529;SDS011;23374;52.758;6.872;2023-05-21T09:26:20;5.13;;;3.50;;
37529;SDS011;23374;52.758;6.872;2023-05-21T09:28:42;5.47;;;3.50;;
37529;SDS011;23374;52.758;6.872;2023-05-21T09:31:03;7.07;;;3.30;;
37529;SDS011;23374;52.758;6.872;2023-05-21T09:33:25;5.50;;;3.70;;
37529;SDS011;23374;52.758;6.872;2023-05-21T09:35:48;5.77;;;4.00;;
37529;SDS011;23374;52.758;6.872;2023-05-21T09:38:09;6.47;;;4.23;;
37529;SDS011;23374;52.758;6.872;2023-05-21T09:40:29;7.30;;;4.10;;
37529;SDS011;23374;52.758;6.872;2023-05-21T09:42:51;7.37;;;4.37;;
37529;SDS011;23374;52.758;6.872;2023-05-21T09:45:16;6.13;;;4.33;;
37529;SDS011;23374;52.758;6.872;2023-05-21T09:47:41;7.47;;;4.30;;
37529;SDS011;23374;52.758;6.872;2023-05-21T09:50:02;7.27;;;4.70;;
37529;SDS011;23374;52.758;6.872;2023-05-21T09:52:23;5.83;;;4.20;;
37529;SDS011;23374;52.758;6.872;2023-05-21T09:54:45;7.17;;;4.93;;
37529;SDS011;23374;52.758;6.872;2023-05-21T09:57:05;7.40;;;4.70;;
37529;SDS011;23374;52.758;6.872;2023-05-21T09:59:35;7.97;;;5.07;;
37529;SDS011;23374;52.758;6.872;2023-05-21T10:01:58;6.97;;;4.47;;
37529;SDS011;23374;52.758;6.872;2023-05-21T10:04:19;6.60;;;4.43;;
37529;SDS011;23374;52.758;6.872;2023-05-21T10:06:42;8.93;;;5.50;;
37529;SDS011;23374;52.758;6.872;2023-05-21T10:09:06;6.53;;;4.27;;
37529;SDS011;23374;52.758;6.872;2023-05-21T10:11:32;8.30;;;4.53;;
37529;SDS011;23374;52.758;6.872;2023-05-21T10:14:19;6.27;;;4.73;;
37529;SDS011;23374;52.758;6.872;2023-05-21T10:16:41;7.50;;;4.50;;
37529;SDS011;23374;52.758;6.872;2023-05-21T10:19:03;6.63;;;4.77;;
37529;SDS011;23374;52.758;6.872;2023-05-21T10:21:25;10.53;;;5.00;;
37529;SDS011;23374;52.758;6.872;2023-05-21T10:23:45;8.40;;;5.10;;
37529;SDS011;23374;52.758;6.872;2023-05-21T10:26:07;10.00;;;5.87;;
37529;SDS011;23374;52.758;6.872;2023-05-21T10:28:29;12.23;;;5.67;;
37529;SDS011;23374;52.758;6.872;2023-05-21T10:30:52;11.40;;;6.03;;
37529;SDS011;23374;52.758;6.872;2023-05-21T10:33:14;10.07;;;5.50;;
37529;SDS011;23374;52.758;6.872;2023-05-21T10:35:36;7.70;;;5.67;;
37529;SDS011;23374;52.758;6.872;2023-05-21T10:37:59;9.93;;;5.40;;
37529;SDS011;23374;52.758;6.872;2023-05-21T10:40:22;13.30;;;5.60;;
37529;SDS011;23374;52.758;6.872;2023-05-21T10:45:41;10.87;;;5.50;;
37529;SDS011;23374;52.758;6.872;2023-05-21T10:53:14;8.60;;;5.30;;
37529;SDS011;23374;52.758;6.872;2023-05-21T11:02:14;12.57;;;6.83;;
37529;SDS011;23374;52.758;6.872;2023-05-21T11:04:36;14.27;;;7.53;;
37529;SDS011;23374;52.758;6.872;2023-05-21T11:07:00;11.57;;;7.40;;
37529;SDS011;23374;52.758;6.872;2023-05-21T11:09:21;9.93;;;6.57;;
37529;SDS011;23374;52.758;6.872;2023-05-21T11:11:52;12.70;;;7.20;;
37529;SDS011;23374;52.758;6.872;2023-05-21T11:15:17;13.77;;;7.17;;
37529;SDS011;23374;52.758;6.872;2023-05-21T11:17:40;12.53;;;7.33;;
37529;SDS011;23374;52.758;6.872;2023-05-21T11:20:03;11.07;;;7.30;;
37529;SDS011;23374;52.758;6.872;2023-05-21T11:22:27;13.00;;;7.60;;
37529;SDS011;23374;52.758;6.872;2023-05-21T11:24:47;15.07;;;7.80;;
37529;SDS011;23374;52.758;6.872;2023-05-21T11:27:08;13.67;;;8.20;;
37529;SDS011;23374;52.758;6.872;2023-05-21T11:29:41;12.90;;;8.37;;
37529;SDS011;23374;52.758;6.872;2023-05-21T11:32:03;16.57;;;8.10;;
37529;SDS011;23374;52.758;6.872;2023-05-21T11:34:25;14.47;;;8.17;;
37529;SDS011;23374;52.758;6.872;2023-05-21T11:39:53;16.37;;;8.43;;
37529;SDS011;23374;52.758;6.872;2023-05-21T11:42:28;13.77;;;8.27;;
37529;SDS011;23374;52.758;6.872;2023-05-21T11:44:57;15.47;;;7.90;;
37529;SDS011;23374;52.758;6.872;2023-05-21T11:47:19;17.87;;;7.73;;
37529;SDS011;23374;52.758;6.872;2023-05-21T11:49:40;14.17;;;7.97;;
37529;SDS011;23374;52.758;6.872;2023-05-21T11:52:02;14.43;;;7.87;;
37529;SDS011;23374;52.758;6.872;2023-05-21T11:54:30;14.43;;;8.73;;
37529;SDS011;23374;52.758;6.872;2023-05-21T11:56:55;13.03;;;7.03;;
37529;SDS011;23374;52.758;6.872;2023-05-21T11:59:16;12.37;;;7.93;;
37529;SDS011;23374;52.758;6.872;2023-05-21T12:01:36;15.40;;;8.37;;
37529;SDS011;23374;52.758;6.872;2023-05-21T12:03:57;15.87;;;8.77;;
37529;SDS011;23374;52.758;6.872;2023-05-21T12:06:25;13.60;;;7.53;;
37529;SDS011;23374;52.758;6.872;2023-05-21T12:08:50;13.33;;;8.43;;
37529;SDS011;23374;52.758;6.872;2023-05-21T12:11:11;13.70;;;8.23;;
37529;SDS011;23374;52.758;6.872;2023-05-21T12:13:33;16.23;;;8.77;;
37529;SDS011;23374;52.758;6.872;2023-05-21T12:15:53;17.90;;;8.83;;
37529;SDS011;23374;52.758;6.872;2023-05-21T12:18:14;15.33;;;8.10;;
37529;SDS011;23374;52.758;6.872;2023-05-21T12:20:35;13.73;;;8.60;;
37529;SDS011;23374;52.758;6.872;2023-05-21T12:22:56;14.23;;;7.63;;
37529;SDS011;23374;52.758;6.872;2023-05-21T12:25:18;15.83;;;8.40;;
37529;SDS011;23374;52.758;6.872;2023-05-21T12:27:39;19.77;;;8.40;;
37529;SDS011;23374;52.758;6.872;2023-05-21T12:30:00;16.60;;;9.47;;
37529;SDS011;23374;52.758;6.872;2023-05-21T12:32:26;14.17;;;8.57;;
37529;SDS011;23374;52.758;6.872;2023-05-21T12:34:49;14.87;;;9.00;;
37529;SDS011;23374;52.758;6.872;2023-05-21T12:37:14;15.60;;;9.07;;
37529;SDS011;23374;52.758;6.872;2023-05-21T12:39:46;16.90;;;8.37;;
37529;SDS011;23374;52.758;6.872;2023-05-21T12:42:14;15.77;;;8.97;;
37529;SDS011;23374;52.758;6.872;2023-05-21T12:44:35;16.43;;;8.60;;
37529;SDS011;23374;52.758;6.872;2023-05-21T12:46:57;18.77;;;9.30;;
37529;SDS011;23374;52.758;6.872;2023-05-21T12:49:34;13.37;;;7.97;;
37529;SDS011;23374;52.758;6.872;2023-05-21T12:52:03;14.57;;;9.00;;
37529;SDS011;23374;52.758;6.872;2023-05-21T12:54:32;15.90;;;8.60;;
37529;SDS011;23374;52.758;6.872;2023-05-21T12:56:54;11.70;;;6.13;;
37529;SDS011;23374;52.758;6.872;2023-05-21T12:59:15;15.53;;;9.10;;
37529;SDS011;23374;52.758;6.872;2023-05-21T13:01:35;15.63;;;9.37;;
37529;SDS011;23374;52.758;6.872;2023-05-21T13:03:56;14.07;;;8.40;;
37529;SDS011;23374;52.758;6.872;2023-05-21T13:06:16;13.73;;;8.63;;
37529;SDS011;23374;52.758;6.872;2023-05-21T13:08:36;15.53;;;8.67;;
37529;SDS011;23374;52.758;6.872;2023-05-21T13:10:57;14.43;;;8.53;;
37529;SDS011;23374;52.758;6.872;2023-05-21T13:13:17;14.40;;;7.90;;
37529;SDS011;23374;52.758;6.872;2023-05-21T13:15:37;11.10;;;6.83;;
37529;SDS011;23374;52.758;6.872;2023-05-21T13:17:58;14.13;;;8.73;;
37529;SDS011;23374;52.758;6.872;2023-05-21T13:20:19;14.70;;;7.97;;
37529;SDS011;23374;52.758;6.872;2023-05-21T13:22:41;14.87;;;8.67;;
37529;SDS011;23374;52.758;6.872;2023-05-21T13:25:05;14.43;;;8.40;;
37529;SDS011;23374;52.758;6.872;2023-05-21T13:27:27;14.37;;;8.63;;
37529;SDS011;23374;52.758;6.872;2023-05-21T13:29:47;13.83;;;7.70;;
37529;SDS011;23374;52.758;6.872;2023-05-21T13:32:07;15.60;;;9.17;;
37529;SDS011;23374;52.758;6.872;2023-05-21T13:34:27;14.30;;;8.97;;
37529;SDS011;23374;52.758;6.872;2023-05-21T13:36:48;12.93;;;8.27;;
37529;SDS011;23374;52.758;6.872;2023-05-21T13:39:08;16.17;;;8.70;;
37529;SDS011;23374;52.758;6.872;2023-05-21T13:41:29;14.53;;;8.57;;
37529;SDS011;23374;52.758;6.872;2023-05-21T13:43:49;13.60;;;8.00;;
37529;SDS011;23374;52.758;6.872;2023-05-21T13:46:10;14.57;;;8.53;;
37529;SDS011;23374;52.758;6.872;2023-05-21T13:48:30;13.60;;;8.27;;
37529;SDS011;23374;52.758;6.872;2023-05-21T13:50:51;14.67;;;8.77;;
37529;SDS011;23374;52.758;6.872;2023-05-21T13:53:11;17.67;;;8.80;;
37529;SDS011;23374;52.758;6.872;2023-05-21T13:55:31;14.43;;;8.50;;
37529;SDS011;23374;52.758;6.872;2023-05-21T13:57:52;12.27;;;8.00;;
37529;SDS011;23374;52.758;6.872;2023-05-21T14:00:12;12.53;;;7.40;;
37529;SDS011;23374;52.758;6.872;2023-05-21T14:02:34;11.87;;;7.60;;
37529;SDS011;23374;52.758;6.872;2023-05-21T14:04:54;14.03;;;8.27;;
37529;SDS011;23374;52.758;6.872;2023-05-21T14:07:14;13.53;;;8.30;;
37529;SDS011;23374;52.758;6.872;2023-05-21T14:09:35;11.83;;;7.93;;
37529;SDS011;23374;52.758;6.872;2023-05-21T14:11:56;15.83;;;8.10;;
37529;SDS011;23374;52.758;6.872;2023-05-21T14:14:17;15.33;;;8.87;;
37529;SDS011;23374;52.758;6.872;2023-05-21T14:16:38;15.63;;;9.07;;
37529;SDS011;23374;52.758;6.872;2023-05-21T14:18:58;14.67;;;8.70;;
37529;SDS011;23374;52.758;6.872;2023-05-21T14:21:19;15.83;;;8.73;;
37529;SDS011;23374;52.758;6.872;2023-05-21T14:23:40;12.93;;;8.57;;
37529;SDS011;23374;52.758;6.872;2023-05-21T14:26:00;14.27;;;8.43;;
37529;SDS011;23374;52.758;6.872;2023-05-21T14:28:21;15.93;;;8.83;;
37529;SDS011;23374;52.758;6.872;2023-05-21T14:30:41;15.20;;;8.20;;
37529;SDS011;23374;52.758;6.872;2023-05-21T14:33:01;16.73;;;8.80;;